Данни от 01.04.2020 г. 23:55:00

Температура вътрешна: 19.6 °C
Температура външна: 7.3 °C
Атмосферно налягане: 1000.0 hPa
Атмосферно налягане на морско равнище: 1017.9 hPa
Влажност: 49.6 %



История от последните 24 часа

Дата и часTin [°C]P [hPa]Psl [hPa]H [%]Tout [°C]
   01.04.2020 г. 23:30:01      19.6      1000.2      1018.1      49.2      7.0   
   01.04.2020 г. 23:00:01      19.6      1000.4      1018.2      49.3      6.9   
   01.04.2020 г. 22:30:01      19.7      1000.4      1018.3      49.4      6.8   
   01.04.2020 г. 22:00:00      19.8      1000.6      1018.5      49.1      6.8   
   01.04.2020 г. 21:30:01      19.8      1000.8      1018.6      48.6      6.8   
   01.04.2020 г. 21:00:00      19.8      1000.6      1018.5      47.8      7.1   
   01.04.2020 г. 20:30:01      19.8      1000.3      1018.1      48.0      7.1   
   01.04.2020 г. 20:00:00      19.7      1000.3      1018.1      48.3      7.6   
   01.04.2020 г. 19:30:01      19.7      1000.5      1018.3      48.7      7.5   
   01.04.2020 г. 19:00:00      19.7      1000.8      1018.7      47.7      8.1   
   01.04.2020 г. 18:30:01      19.7      1000.8      1018.7      47.1      8.1   
   01.04.2020 г. 18:00:00      19.7      1000.9      1018.8      46.9      8.8   
   01.04.2020 г. 17:30:01      19.7      1001.0      1018.9      46.8      9.1   
   01.04.2020 г. 17:00:00      19.7      1001.2      1019.1      47.0      9.0   
   01.04.2020 г. 16:30:01      19.7      1001.6      1019.5      46.4      9.0   
   01.04.2020 г. 16:00:01      19.7      1001.7      1019.6      47.7      9.1   
   01.04.2020 г. 15:30:01      19.6      1002.0      1019.9      47.0      8.5   
   01.04.2020 г. 15:00:01      19.6      1002.3      1020.2      46.6      9.1   
   01.04.2020 г. 14:30:01      19.7      1002.5      1020.4      47.0      8.8   
   01.04.2020 г. 14:00:01      19.7      1002.8      1020.7      47.5      8.6   
   01.04.2020 г. 13:30:01      19.7      1003.0      1020.9      47.9      8.0   
   01.04.2020 г. 13:00:01      19.7      1003.3      1021.2      47.5      8.3   
   01.04.2020 г. 12:30:01      19.8      1003.5      1021.4      47.4      7.9   
   01.04.2020 г. 12:00:01      19.8      1003.7      1021.6      47.6      7.5   
   01.04.2020 г. 11:30:01      19.9      1003.8      1021.7      47.8      7.3   
   01.04.2020 г. 11:00:01      19.9      1004.2      1022.1      48.7      6.6   
   01.04.2020 г. 10:30:01      20.0      1004.3      1022.2      48.5      7.0   
   01.04.2020 г. 10:00:01      20.0      1004.3      1022.2      48.5      7.0   
   01.04.2020 г. 09:30:01      20.0      1004.3      1022.2      48.6      6.1   
   01.04.2020 г. 09:00:01      20.1      1004.2      1022.1      48.3      5.8   
   01.04.2020 г. 08:30:01      20.1      1004.1      1022.0      48.8      5.3   
   01.04.2020 г. 08:00:01      20.1      1003.9      1021.8      49.0      4.3   
   01.04.2020 г. 07:30:01      20.2      1003.9      1021.8      49.4      4.5   
   01.04.2020 г. 07:00:01      20.2      1003.7      1021.7      48.8      4.3   
   01.04.2020 г. 06:30:00      20.2      1003.8      1021.8      49.4      4.5   
   01.04.2020 г. 06:00:01      20.1      1003.9      1021.8      49.4      4.4   
   01.04.2020 г. 05:30:00      20.5      1003.9      1021.8      50.8      4.5   
   01.04.2020 г. 05:00:01      20.5      1004.0      1021.9      50.9      4.6   
   01.04.2020 г. 04:30:00      20.6      1003.9      1021.8      50.8      5.3   
   01.04.2020 г. 04:00:01      20.6      1004.1      1022.0      50.2      5.5   
   01.04.2020 г. 03:30:00      20.6      1004.3      1022.2      50.4      6.3   
   01.04.2020 г. 03:00:01      20.7      1004.3      1022.2      49.9      7.3   
   01.04.2020 г. 02:30:00      20.7      1004.2      1022.2      50.5      6.8   
   01.04.2020 г. 02:00:01      20.7      1004.2      1022.2      49.8      6.9   
   01.04.2020 г. 01:30:00      20.7      1004.2      1022.2      49.6      6.8   
   01.04.2020 г. 01:00:01      20.8      1004.2      1022.1      49.5      7.3   
   01.04.2020 г. 00:30:01      20.8      1004.2      1022.2      49.0      7.8   
   01.04.2020 г. 00:00:01      20.8      1004.2      1022.1      48.8      7.4   

BaroSL graphic

TEMPE graphic